Time;durP1;ratioP1;P1;durP2;ratioP2;P2;SDS_P1;SDS_P2;PMS_P1;PMS_P2;Temp;Humidity;BMP_temperature;BMP_pressure;BME280_temperature;BME280_humidity;BME280_pressure;Samples;Min_cycle;Max_cycle;Signal;HPM_P1;HPM_P2
2023/09/04 00:01:05;;;;;;;8.15;2.95;;;;;;;21.64;49.75;102614.47;16124603;19;130574;-60
2023/09/04 00:06:27;;;;;;;5.85;2.75;;;;;;;21.62;49.55;102620.25;16120619;19;129623;-58
2023/09/04 00:11:49;;;;;;;3.42;2.38;;;;;;;21.61;49.64;102620.50;16115906;19;130980;-60
2023/09/04 00:17:11;;;;;;;7.88;2.63;;;;;;;21.61;49.83;102612.97;16123146;19;130759;-60
2023/09/04 00:22:33;;;;;;;6.30;2.88;;;;;;;21.60;49.39;102607.63;16122323;19;129217;-60
2023/09/04 00:27:57;;;;;;;7.57;2.80;;;;;;;21.59;49.45;102605.94;16121529;19;130858;-59
2023/09/04 00:33:18;;;;;;;5.90;2.88;;;;;;;21.57;49.78;102596.94;16119420;19;129671;-60
2023/09/04 00:38:40;;;;;;;5.30;2.25;;;;;;;21.56;49.40;102590.53;16119341;19;129848;-59
2023/09/04 00:44:02;;;;;;;5.13;3.15;;;;;;;21.56;49.62;102592.44;16121643;19;131605;-59
2023/09/04 00:49:25;;;;;;;4.63;2.42;;;;;;;21.55;49.34;102585.19;16120431;19;130477;-59
2023/09/04 00:54:48;;;;;;;7.32;3.10;;;;;;;21.54;49.58;102587.13;16117807;19;131196;-61
2023/09/04 01:00:13;;;;;;;6.80;2.70;;;;;;;21.54;49.40;102594.63;16114172;19;130426;-59
2023/09/04 01:05:35;;;;;;;3.83;2.60;;;;;;;21.51;49.42;102585.66;16113190;19;130379;-59
2023/09/04 01:11:29;;;;;;;4.20;2.55;;;;;;;21.53;49.05;102590.97;16111581;19;130657;-59
2023/09/04 01:16:52;;;;;;;6.50;2.60;;;;;;;21.50;49.34;102583.94;16119097;19;131860;-59
2023/09/04 01:22:14;;;;;;;4.80;2.42;;;;;;;21.49;49.36;102579.44;16117549;19;130199;-60
2023/09/04 01:27:41;;;;;;;3.72;2.40;;;;;;;21.50;49.52;102569.16;16116556;19;130479;-59
2023/09/04 01:33:08;;;;;;;7.28;2.60;;;;;;;21.49;49.27;102568.31;16115820;19;130563;-59
2023/09/04 01:38:32;;;;;;;4.07;2.30;;;;;;;21.48;49.63;102549.88;16119061;19;131418;-60
2023/09/04 01:43:54;;;;;;;4.90;2.70;;;;;;;21.47;49.16;102548.16;16117590;19;130419;-59
2023/09/04 01:49:16;;;;;;;3.70;2.60;;;;;;;21.47;49.12;102556.50;16112492;19;130421;-61
2023/09/04 01:54:38;;;;;;;3.47;2.78;;;;;;;21.46;49.04;102535.31;16117199;19;131162;-58
2023/09/04 02:00:00;;;;;;;4.43;2.88;;;;;;;21.47;49.57;102547.31;16110508;19;130004;-60
2023/09/04 02:05:22;;;;;;;2.60;2.25;;;;;;;21.45;49.32;102541.97;16106397;19;130199;-60
2023/09/04 02:10:44;;;;;;;3.47;2.60;;;;;;;21.45;49.52;102527.19;16108505;19;129880;-60
2023/09/04 02:16:06;;;;;;;3.95;2.40;;;;;;;21.44;49.16;102523.53;16113885;19;130321;-60
2023/09/04 02:21:28;;;;;;;3.15;2.33;;;;;;;21.44;49.21;102528.28;16113706;19;130895;-60
2023/09/04 02:26:50;;;;;;;3.05;2.47;;;;;;;21.43;48.98;102507.91;16114615;19;130547;-59
2023/09/04 02:32:12;;;;;;;4.88;2.30;;;;;;;21.42;49.20;102514.56;16111089;19;130120;-60
2023/09/04 02:37:34;;;;;;;4.28;2.45;;;;;;;21.41;49.36;102503.66;16112794;19;129554;-60
2023/09/04 02:42:56;;;;;;;2.97;2.30;;;;;;;21.41;49.27;102504.53;16111403;19;130139;-60
2023/09/04 02:48:18;;;;;;;3.92;2.85;;;;;;;21.41;49.19;102496.19;16112128;19;130838;-59
2023/09/04 02:53:40;;;;;;;3.53;2.22;;;;;;;21.41;49.33;102503.66;16109949;19;130055;-61
2023/09/04 02:59:02;;;;;;;2.90;2.60;;;;;;;21.39;48.89;102489.97;16112530;19;134445;-60
2023/09/04 03:04:24;;;;;;;5.57;2.60;;;;;;;21.40;49.12;102496.38;16107464;19;131180;-60
2023/09/04 03:09:46;;;;;;;3.40;2.38;;;;;;;21.38;49.16;102496.63;16103486;19;131611;-59
2023/09/04 03:15:08;;;;;;;3.38;2.42;;;;;;;21.37;49.15;102508.84;16102189;19;130214;-59
2023/09/04 03:20:30;;;;;;;5.05;2.60;;;;;;;21.37;49.43;102512.47;16108865;19;129719;-59
2023/09/04 03:25:52;;;;;;;4.38;2.97;;;;;;;21.37;49.20;102508.84;16109231;19;130228;-60
2023/09/04 03:31:14;;;;;;;3.88;2.63;;;;;;;21.36;48.97;102521.06;16109298;19;130072;-60
2023/09/04 03:36:36;;;;;;;3.22;2.65;;;;;;;21.35;49.17;102520.19;16105149;19;131880;-60
2023/09/04 03:41:58;;;;;;;2.85;2.50;;;;;;;21.35;49.00;102511.81;16109148;19;131130;-60
2023/09/04 03:47:20;;;;;;;3.53;2.25;;;;;;;21.35;49.30;102513.78;16108075;19;129803;-59
2023/09/04 03:52:43;;;;;;;3.30;2.30;;;;;;;21.34;49.11;102512.94;16109121;19;129813;-59
2023/09/04 03:58:05;;;;;;;2.95;2.60;;;;;;;21.35;49.09;102519.34;16110474;19;129732;-59
2023/09/04 04:03:27;;;;;;;2.50;2.30;;;;;;;21.34;49.02;102520.41;16106493;19;131454;-58
2023/09/04 04:08:50;;;;;;;3.42;2.63;;;;;;;21.34;48.92;102523.19;16105580;19;129757;-60
2023/09/04 04:14:12;;;;;;;2.88;2.45;;;;;;;21.33;49.11;102527.06;16110761;19;130427;-59
2023/09/04 04:19:34;;;;;;;2.67;2.33;;;;;;;21.32;49.05;102526.22;16117714;19;129905;-60
2023/09/04 04:24:56;;;;;;;2.42;2.20;;;;;;;21.31;49.31;102526.44;16121861;19;130236;-58
2023/09/04 04:30:18;;;;;;;4.97;2.40;;;;;;;21.32;49.35;102528.13;16114477;19;130069;-60
2023/09/04 04:35:40;;;;;;;3.20;2.45;;;;;;;21.30;48.98;102533.06;16119944;19;130990;-59
2023/09/04 04:41:02;;;;;;;2.30;2.10;;;;;;;21.29;49.09;102523.88;16122407;19;130082;-59
2023/09/04 04:46:25;;;;;;;4.68;2.20;;;;;;;21.29;49.34;102511.91;16116210;19;130873;-60
2023/09/04 04:51:47;;;;;;;3.50;2.63;;;;;;;21.29;49.10;102523.03;16122760;19;129804;-61
2023/09/04 04:57:09;;;;;;;2.25;2.05;;;;;;;21.28;48.85;102524.13;16120085;19;130456;-60
2023/09/04 05:02:31;;;;;;;3.55;2.25;;;;;;;21.28;49.00;102526.91;16112378;19;129723;-61
2023/09/04 05:07:53;;;;;;;2.75;2.30;;;;;;;21.27;49.29;102522.41;16116739;19;130730;-60
2023/09/04 05:13:15;;;;;;;2.78;2.20;;;;;;;21.26;49.04;102515.13;16116352;19;130275;-59
2023/09/04 05:18:37;;;;;;;3.35;2.50;;;;;;;21.25;49.23;102511.47;16113112;19;130287;-60
2023/09/04 05:23:59;;;;;;;2.67;2.05;;;;;;;21.28;49.06;102515.78;16115925;19;129946;-62
2023/09/04 05:29:21;;;;;;;2.33;1.70;;;;;;;21.35;49.14;102517.41;16118176;19;131130;-54
2023/09/04 05:34:43;;;;;;;4.22;2.00;;;;;;;21.43;48.94;102515.44;16118620;19;130909;-57
2023/09/04 05:40:06;;;;;;;5.28;1.60;;;;;;;21.48;48.81;102501.66;16110228;19;129674;-61
2023/09/04 05:45:28;;;;;;;2.10;1.63;;;;;;;21.54;48.76;102498.00;16112464;19;131337;-54
2023/09/04 05:50:50;;;;;;;3.95;1.98;;;;;;;21.58;48.80;102495.63;16115114;19;129542;-62
2023/09/04 05:56:14;;;;;;;2.85;2.10;;;;;;;21.59;49.00;102487.06;16111474;19;129340;-58
2023/09/04 06:01:39;;;;;;;3.28;1.88;;;;;;;21.57;48.76;102485.56;16112732;19;130132;-58
2023/09/04 06:07:04;;;;;;;2.90;2.20;;;;;;;21.58;48.79;102490.91;16116346;19;130344;-58
2023/09/04 06:12:27;;;;;;;2.30;2.00;;;;;;;21.58;48.25;102499.28;16117133;19;133653;-58
2023/09/04 06:17:49;;;;;;;3.70;2.33;;;;;;;21.60;47.98;102485.09;16115132;19;130224;-58
2023/09/04 06:23:11;;;;;;;3.92;2.88;;;;;;;21.64;48.16;102486.38;16107660;19;129609;-58
2023/09/04 06:28:33;;;;;;;4.10;2.30;;;;;;;21.66;47.71;102476.69;16112582;19;130326;-59
2023/09/04 06:33:55;;;;;;;2.83;2.10;;;;;;;21.70;48.14;102488.22;16113521;19;130618;-57
2023/09/04 06:39:17;;;;;;;3.28;2.00;;;;;;;21.73;47.82;102484.97;16115343;19;130872;-59
2023/09/04 06:44:39;;;;;;;6.80;2.58;;;;;;;21.77;47.78;102491.81;16107544;19;130617;-60
2023/09/04 06:50:02;;;;;;;9.13;5.57;;;;;;;21.75;47.42;102507.88;16104666;19;130210;-59
2023/09/04 06:55:24;;;;;;;10.02;8.20;;;;;;;21.71;47.13;102489.91;16101575;19;131906;-59
2023/09/04 07:00:46;;;;;;;11.05;8.43;;;;;;;21.70;46.47;102484.59;16101657;19;129587;-59
2023/09/04 07:06:11;;;;;;;12.52;9.50;;;;;;;21.67;46.64;102497.03;16104227;19;131028;-59
2023/09/04 07:11:33;;;;;;;13.30;9.35;;;;;;;21.64;46.54;102491.94;16106857;19;129619;-58
2023/09/04 07:16:55;;;;;;;11.23;9.43;;;;;;;21.65;46.42;102488.06;16107879;19;130991;-59
2023/09/04 07:22:30;;;;;;;13.98;9.95;;;;;;;21.67;46.14;102486.75;16100144;19;131167;-59
2023/09/04 07:27:52;;;;;;;12.85;9.45;;;;;;;21.69;46.51;102480.94;16092732;19;131027;-59
2023/09/04 07:33:14;;;;;;;13.38;9.93;;;;;;;21.70;46.27;102479.84;16107351;19;129237;-59
2023/09/04 07:38:36;;;;;;;11.05;8.95;;;;;;;21.72;46.29;102482.44;16107475;19;130589;-59
2023/09/04 07:43:58;;;;;;;10.65;8.07;;;;;;;21.74;45.93;102481.13;16109313;19;130664;-59
2023/09/04 07:49:20;;;;;;;13.38;8.30;;;;;;;21.78;45.98;102487.06;16114685;19;130990;-58
2023/09/04 07:54:42;;;;;;;17.98;9.05;;;;;;;21.81;46.15;102484.66;16126289;19;133588;-59
2023/09/04 08:00:05;;;;;;;10.93;7.85;;;;;;;21.83;46.21;102479.72;16126145;19;130171;-59
2023/09/04 08:05:27;;;;;;;12.02;8.13;;;;;;;21.87;46.18;102473.69;16122443;19;133302;-59
2023/09/04 08:10:50;;;;;;;12.60;7.88;;;;;;;21.91;46.51;102483.31;16123049;19;130689;-60
2023/09/04 08:16:12;;;;;;;11.90;7.38;;;;;;;21.94;46.06;102480.03;16122538;19;130588;-59
2023/09/04 08:21:34;;;;;;;12.15;6.90;;;;;;;21.96;46.42;102475.97;16121817;19;130246;-59
2023/09/04 08:26:56;;;;;;;11.23;7.20;;;;;;;21.99;46.32;102477.41;16122457;19;129260;-59
2023/09/04 08:32:18;;;;;;;10.85;6.82;;;;;;;22.02;46.03;102467.72;16122149;19;129617;-59
2023/09/04 08:37:40;;;;;;;8.50;6.35;;;;;;;22.06;46.28;102467.03;16122755;19;129567;-60
2023/09/04 08:43:04;;;;;;;8.40;6.15;;;;;;;22.12;46.71;102476.41;16116039;19;131202;-59
2023/09/04 08:48:29;;;;;;;11.63;5.57;;;;;;;22.18;46.26;102485.75;16116886;19;131503;-59
2023/09/04 08:53:51;;;;;;;7.40;4.70;;;;;;;22.19;46.52;102479.97;16118366;19;130713;-59
2023/09/04 08:59:13;;;;;;;11.80;4.45;;;;;;;22.25;46.89;102489.38;16116710;19;130030;-59
2023/09/04 09:04:36;;;;;;;9.45;4.40;;;;;;;22.28;46.71;102478.59;16118023;19;130878;-54
2023/09/04 09:10:04;;;;;;;5.35;3.95;;;;;;;22.33;46.67;102475.09;16118200;19;129551;-52
2023/09/04 09:15:26;;;;;;;7.03;3.75;;;;;;;22.35;47.15;102478.50;16117528;19;131268;-60
2023/09/04 09:20:48;;;;;;;14.63;4.65;;;;;;;22.36;47.20;102482.13;16117659;19;129600;-60
2023/09/04 09:26:11;;;;;;;8.20;3.97;;;;;;;22.35;47.28;102470.16;16120526;19;131128;-58
2023/09/04 09:31:34;;;;;;;20.42;4.05;;;;;;;22.34;47.08;102468.44;16115299;19;129102;-60
2023/09/04 09:36:57;;;;;;;11.70;3.88;;;;;;;22.35;47.63;102461.78;16115369;19;129389;-60
2023/09/04 09:42:20;;;;;;;9.88;3.60;;;;;;;22.34;47.60;102454.50;16123935;19;129523;-59
2023/09/04 09:47:42;;;;;;;7.15;3.47;;;;;;;22.35;47.47;102447.84;16118671;19;129547;-60
2023/09/04 09:53:05;;;;;;;9.75;3.95;;;;;;;22.34;47.42;102439.72;16117576;19;131464;-59
2023/09/04 09:58:27;;;;;;;7.22;3.63;;;;;;;22.32;47.75;102434.38;16116663;19;131150;-61
2023/09/04 10:03:49;;;;;;;8.98;3.63;;;;;;;22.33;47.89;102424.91;16116720;19;130494;-60
2023/09/04 10:09:13;;;;;;;12.30;3.72;;;;;;;22.31;47.98;102421.50;16120081;19;129205;-59
2023/09/04 10:14:40;;;;;;;9.82;3.80;;;;;;;22.31;47.64;102418.72;16112784;19;129671;-61
2023/09/04 10:20:04;;;;;;;7.03;3.83;;;;;;;22.31;47.94;102418.72;16113634;19;133642;-60
2023/09/04 10:25:44;;;;;;;6.82;3.65;;;;;;;22.33;48.23;102404.56;16107598;19;130758;-60
2023/09/04 10:31:06;;;;;;;7.80;3.80;;;;;;;22.30;48.08;102400.28;16109719;19;130538;-59
2023/09/04 10:36:31;;;;;;;6.38;3.92;;;;;;;22.30;48.29;102386.34;16107248;19;130853;-59
2023/09/04 10:41:53;;;;;;;6.95;3.72;;;;;;;22.31;48.47;102392.78;16111595;19;130550;-60
2023/09/04 10:47:16;;;;;;;5.68;3.75;;;;;;;22.31;48.40;102390.84;16108766;19;129295;-60
2023/09/04 10:52:43;;;;;;;7.22;4.60;;;;;;;22.31;48.52;102385.28;16112402;19;131126;-60
2023/09/04 10:58:06;;;;;;;6.20;4.18;;;;;;;22.31;48.60;102390.84;16116119;19;130329;-59
2023/09/04 11:03:28;;;;;;;10.27;4.38;;;;;;;22.33;48.89;102387.84;16113417;19;129491;-60
2023/09/04 11:08:51;;;;;;;4.68;3.70;;;;;;;22.34;48.80;102384.81;16108912;19;131170;-60
2023/09/04 11:14:13;;;;;;;7.30;3.55;;;;;;;22.33;49.09;102369.16;16112978;19;131221;-60
2023/09/04 11:19:36;;;;;;;5.25;3.88;;;;;;;22.32;48.91;102367.47;16108098;19;130253;-59
2023/09/04 11:24:58;;;;;;;5.93;3.35;;;;;;;22.33;48.84;102366.38;16121639;19;130356;-60
2023/09/04 11:30:20;;;;;;;5.43;3.65;;;;;;;22.34;48.65;102361.66;16126562;19;129928;-60
2023/09/04 11:35:42;;;;;;;5.13;3.67;;;;;;;22.35;48.85;102363.34;16125941;19;130739;-60
2023/09/04 11:41:15;;;;;;;5.72;3.85;;;;;;;22.35;48.64;102367.00;16128232;19;128884;-60
2023/09/04 11:46:37;;;;;;;6.88;3.50;;;;;;;22.33;48.69;102360.78;16125636;19;130268;-60
2023/09/04 11:51:59;;;;;;;6.93;3.58;;;;;;;22.33;48.32;102351.59;16123880;19;129686;-60
2023/09/04 11:57:22;;;;;;;4.55;3.65;;;;;;;22.34;48.59;102337.41;16119886;19;132044;-58
2023/09/04 12:02:44;;;;;;;5.80;3.60;;;;;;;22.36;48.70;102328.78;16121740;19;130427;-59
2023/09/04 12:08:06;;;;;;;6.15;3.90;;;;;;;22.37;48.37;102324.91;16119161;19;130783;-60
2023/09/04 12:13:28;;;;;;;6.53;3.50;;;;;;;22.38;48.43;102310.75;16123325;19;130574;-60
2023/09/04 12:18:50;;;;;;;4.85;3.53;;;;;;;22.37;48.55;102305.41;16123840;19;131049;-59
2023/09/04 12:24:14;;;;;;;4.20;3.70;;;;;;;22.38;48.19;102291.25;16126399;19;131589;-60
2023/09/04 12:29:36;;;;;;;3.38;3.05;;;;;;;22.39;48.17;102298.53;16120929;19;131053;-60
2023/09/04 12:35:06;;;;;;;6.10;3.45;;;;;;;22.40;47.92;102293.78;16125090;19;129882;-59
2023/09/04 12:40:28;;;;;;;4.15;2.90;;;;;;;22.40;47.58;102291.00;16121206;19;130490;-59
2023/09/04 12:45:50;;;;;;;3.20;2.75;;;;;;;22.41;47.22;102287.94;16120934;19;129430;-60
2023/09/04 12:51:12;;;;;;;3.10;2.80;;;;;;;22.43;47.10;102296.94;16118114;19;129789;-64
2023/09/04 12:56:34;;;;;;;5.22;2.85;;;;;;;22.44;47.12;102287.47;16114869;19;130675;-60
2023/09/04 13:01:56;;;;;;;4.05;2.85;;;;;;;22.46;46.79;102275.25;16118911;19;129990;-60
2023/09/04 13:07:18;;;;;;;3.17;2.70;;;;;;;22.47;47.01;102272.19;16116861;19;130619;-60
2023/09/04 13:12:40;;;;;;;4.20;2.45;;;;;;;22.48;46.97;102278.66;16118750;19;130642;-60
2023/09/04 13:18:03;;;;;;;7.22;3.25;;;;;;;22.49;46.51;102266.41;16116600;19;132909;-61
2023/09/04 13:23:26;;;;;;;3.95;2.53;;;;;;;22.50;46.41;102243.00;16114082;19;130853;-63
2023/09/04 13:28:48;;;;;;;3.90;2.47;;;;;;;22.50;46.06;102229.06;16119499;19;129627;-63
2023/09/04 13:34:10;;;;;;;3.38;2.33;;;;;;;22.50;45.95;102227.09;16120084;19;131713;-66
2023/09/04 13:39:33;;;;;;;2.72;2.22;;;;;;;22.51;45.11;102214.03;16117334;19;129881;-65
2023/09/04 13:44:57;;;;;;;4.00;2.10;;;;;;;22.50;45.02;102213.16;16115289;19;130799;-62
2023/09/04 13:50:19;;;;;;;5.10;2.60;;;;;;;22.50;44.70;102202.00;16129621;19;130540;-58
2023/09/04 13:55:41;;;;;;;5.45;2.25;;;;;;;22.52;44.18;102201.78;16198024;19;130805;-58
2023/09/04 14:01:03;;;;;;;6.95;2.63;;;;;;;22.51;44.09;102198.13;16200601;19;129327;-59
2023/09/04 14:06:25;;;;;;;4.65;2.38;;;;;;;22.51;43.71;102188.94;16195726;19;129016;-59
2023/09/04 14:11:57;;;;;;;9.55;2.28;;;;;;;22.50;43.09;102174.13;16204656;19;130579;-56
2023/09/04 14:17:19;;;;;;;5.70;2.10;;;;;;;22.50;42.60;102171.34;16184708;19;131211;-58
2023/09/04 14:22:41;;;;;;;3.00;1.92;;;;;;;22.51;42.77;102177.78;16187306;19;130735;-59
2023/09/04 14:28:03;;;;;;;4.85;2.17;;;;;;;22.51;42.55;102167.47;16222545;19;131134;-58
2023/09/04 14:33:25;;;;;;;2.85;1.77;;;;;;;22.53;43.15;102167.19;16251796;19;129670;-59
2023/09/04 14:38:48;;;;;;;3.25;1.73;;;;;;;22.53;42.97;102161.63;16271650;19;129540;-57
2023/09/04 14:44:10;;;;;;;3.25;1.75;;;;;;;22.55;43.19;102165.03;16273010;19;129547;-58
2023/09/04 14:49:32;;;;;;;3.75;1.60;;;;;;;22.55;43.25;102154.72;16260920;19;131082;-60
2023/09/04 14:54:54;;;;;;;5.68;2.00;;;;;;;22.54;43.33;102154.97;16257718;19;130638;-57
2023/09/04 15:00:17;;;;;;;6.30;1.80;;;;;;;22.58;42.84;102147.81;16255807;19;130086;-60
2023/09/04 15:05:39;;;;;;;5.03;2.13;;;;;;;22.59;43.08;102146.72;16255765;19;129003;-58
2023/09/04 15:11:05;;;;;;;3.80;2.00;;;;;;;22.61;43.27;102138.97;16253157;19;129786;-59
2023/09/04 15:16:34;;;;;;;3.75;2.20;;;;;;;22.64;43.42;102127.31;16257714;19;129909;-59
2023/09/04 15:21:56;;;;;;;3.72;2.00;;;;;;;22.64;43.24;102113.38;16148444;19;130097;-59
2023/09/04 15:27:18;;;;;;;5.97;2.13;;;;;;;22.65;43.77;102112.25;16111651;19;131774;-60
2023/09/04 15:32:40;;;;;;;3.40;1.70;;;;;;;22.64;43.51;102105.00;16110697;19;130329;-60
2023/09/04 15:38:03;;;;;;;7.47;2.08;;;;;;;22.66;43.69;102096.38;16072870;19;131736;-59
2023/09/04 15:43:25;;;;;;;3.47;2.10;;;;;;;22.66;43.70;102079.66;16104351;19;130128;-59
2023/09/04 15:48:47;;;;;;;14.90;2.95;;;;;;;22.65;44.13;102073.22;16102462;19;134598;-59
2023/09/04 15:54:09;;;;;;;8.02;2.47;;;;;;;22.67;44.85;102076.59;16113901;19;130731;-59
2023/09/04 15:59:35;;;;;;;7.07;3.00;;;;;;;22.68;45.00;102069.09;16115322;19;130001;-59
2023/09/04 16:04:57;;;;;;;8.50;3.03;;;;;;;22.67;46.06;102071.03;16113618;19;131311;-59
2023/09/04 16:10:20;;;;;;;31.98;9.10;;;;;;;22.69;46.37;102070.78;16101589;19;131189;-59
2023/09/04 16:15:42;;;;;;;51.75;14.70;;;;;;;22.70;46.35;102075.28;16104536;19;129881;-59
2023/09/04 16:21:04;;;;;;;55.95;16.38;;;;;;;22.71;46.13;102066.66;16103969;19;130481;-58
2023/09/04 16:26:27;;;;;;;36.25;12.35;;;;;;;22.70;46.24;102055.75;16113518;19;131076;-60
2023/09/04 16:31:49;;;;;;;26.88;9.35;;;;;;;22.70;46.22;102059.38;16111198;19;129444;-61
2023/09/04 16:37:13;;;;;;;24.52;8.02;;;;;;;22.69;46.14;102060.47;16116260;19;130263;-58
2023/09/04 16:42:35;;;;;;;23.00;8.07;;;;;;;22.68;46.54;102061.56;16114575;19;130464;-61
2023/09/04 16:47:57;;;;;;;21.20;7.55;;;;;;;22.68;46.45;102047.63;16118400;19;130241;-59
2023/09/04 16:53:19;;;;;;;19.55;6.47;;;;;;;22.68;46.39;102033.66;16112206;19;130218;-59
2023/09/04 16:58:41;;;;;;;22.15;5.70;;;;;;;22.68;46.53;102032.84;16117254;19;132088;-59
2023/09/04 17:04:06;;;;;;;12.82;5.57;;;;;;;22.66;46.67;102027.50;16114921;19;129771;-59
2023/09/04 17:09:28;;;;;;;;;;;;;;;22.62;46.75;102028.22;16113728;19;130488;-61
2023/09/04 17:14:50;;;;;;;31.33;5.45;;;;;;;22.67;46.84;102029.19;16112132;19;130154;-60
2023/09/04 17:20:12;;;;;;;20.05;5.28;;;;;;;22.68;47.05;102032.84;16114181;19;129908;-60
2023/09/04 17:25:38;;;;;;;17.58;3.80;;;;;;;22.67;46.91;102025.56;16112813;19;129421;-61
2023/09/04 17:31:04;;;;;;;12.68;3.67;;;;;;;22.66;46.85;102027.50;16113359;19;129767;-61
2023/09/04 17:36:26;;;;;;;11.50;3.73;;;;;;;22.67;46.58;102026.41;16113083;19;130277;-61
2023/09/04 17:41:48;;;;;;;10.90;3.40;;;;;;;22.67;46.99;102020.81;16105705;19;130218;-63
2023/09/04 17:47:10;;;;;;;8.32;3.17;;;;;;;22.67;47.20;102015.25;16108370;19;131870;-61
2023/09/04 17:52:32;;;;;;;10.18;3.38;;;;;;;22.66;47.13;102012.72;16110389;19;129688;-61
2023/09/04 17:57:54;;;;;;;10.35;3.05;;;;;;;22.67;47.43;102009.66;16114218;19;130780;-62
2023/09/04 18:03:16;;;;;;;9.82;3.00;;;;;;;22.67;47.54;102001.28;16104655;19;131112;-60
2023/09/04 18:08:38;;;;;;;19.50;3.58;;;;;;;22.66;47.27;101995.97;16111698;19;129718;-59
2023/09/04 18:14:01;;;;;;;11.77;3.05;;;;;;;22.64;47.52;101989.78;16110190;19;130654;-60
2023/09/04 18:19:25;;;;;;;14.70;3.40;;;;;;;22.64;47.39;101973.06;16109684;19;130963;-60
2023/09/04 18:24:48;;;;;;;14.23;3.30;;;;;;;22.64;47.29;101976.72;16110156;19;133962;-60
2023/09/04 18:30:13;;;;;;;10.43;3.03;;;;;;;22.65;47.48;101969.19;16109451;19;129758;-60
2023/09/04 18:35:35;;;;;;;9.65;2.70;;;;;;;22.64;47.46;101978.63;16106091;19;131075;-62
2023/09/04 18:40:57;;;;;;;7.32;3.28;;;;;;;22.63;47.79;101974.16;16107496;19;132017;-62
2023/09/04 18:46:21;;;;;;;9.23;3.00;;;;;;;22.63;47.50;101966.66;16106069;19;129914;-62
2023/09/04 18:51:43;;;;;;;8.13;2.97;;;;;;;22.62;47.46;101962.16;16108026;19;129680;-62
2023/09/04 18:57:05;;;;;;;7.07;2.30;;;;;;;22.62;47.87;101967.75;16117430;19;130529;-62
2023/09/04 19:02:27;;;;;;;12.85;2.55;;;;;;;22.61;47.83;101966.03;16126118;19;130662;-59
2023/09/04 19:07:49;;;;;;;10.15;2.65;;;;;;;22.61;47.92;101959.59;16121374;19;129425;-59
2023/09/04 19:13:12;;;;;;;9.65;2.60;;;;;;;22.59;48.03;101948.69;16120816;19;130336;-61
2023/09/04 19:18:34;;;;;;;9.10;2.75;;;;;;;22.57;48.04;101948.97;16122955;19;130676;-60
2023/09/04 19:23:56;;;;;;;11.15;2.70;;;;;;;22.57;48.25;101940.59;16121145;19;131241;-60
2023/09/04 19:29:18;;;;;;;6.15;2.67;;;;;;;22.56;47.74;101926.88;16122149;19;129529;-60
2023/09/04 19:34:41;;;;;;;7.68;2.60;;;;;;;22.55;48.09;101926.06;16119370;19;130446;-62
2023/09/04 19:40:04;;;;;;;7.25;3.05;;;;;;;22.57;48.08;101914.63;16121737;19;129534;-62
2023/09/04 19:45:27;;;;;;;7.40;2.22;;;;;;;22.58;48.14;101910.75;16120089;19;131604;-63
2023/09/04 19:50:49;;;;;;;7.07;2.28;;;;;;;22.57;48.12;101909.06;16119068;19;131055;-61
2023/09/04 19:56:11;;;;;;;11.75;2.30;;;;;;;22.57;48.22;101906.28;16119326;19;129883;-61
2023/09/04 20:01:33;;;;;;;9.70;2.45;;;;;;;22.56;48.41;101901.78;16119931;19;129614;-62
2023/09/04 20:06:55;;;;;;;11.38;2.65;;;;;;;22.56;47.82;101901.78;16116949;19;129513;-62
2023/09/04 20:12:17;;;;;;;6.60;1.98;;;;;;;22.56;48.31;101896.22;16117500;19;129646;-62
2023/09/04 20:17:39;;;;;;;14.93;2.63;;;;;;;22.56;48.15;101896.22;16116638;19;129475;-61
2023/09/04 20:23:01;;;;;;;11.48;2.65;;;;;;;22.53;48.10;101888.34;16117635;19;131597;-61
2023/09/04 20:28:24;;;;;;;15.45;2.67;;;;;;;22.50;48.30;101886.91;16111020;19;131016;-62
2023/09/04 20:33:47;;;;;;;9.40;2.30;;;;;;;22.48;48.26;101888.25;16108158;19;130155;-62
2023/09/04 20:39:09;;;;;;;6.10;2.10;;;;;;;22.44;47.90;101888.75;16108891;19;130900;-62
2023/09/04 20:44:31;;;;;;;12.68;2.47;;;;;;;22.42;48.04;101893.72;16110503;19;130616;-62
2023/09/04 20:49:54;;;;;;;6.15;1.77;;;;;;;22.41;47.62;101888.41;16110867;19;130776;-60
2023/09/04 20:55:15;;;;;;;8.52;2.40;;;;;;;22.39;47.95;101879.44;16113877;19;131088;-61
2023/09/04 21:00:40;;;;;;;7.97;1.90;;;;;;;22.37;47.95;101888.06;16112305;19;131180;-62
2023/09/04 21:06:03;;;;;;;3.97;1.73;;;;;;;22.35;47.32;101876.31;16108931;19;136533;-61
2023/09/04 23:21:46;;;;;;;3.15;1.60;;;;;;;22.08;47.77;101848.97;16116696;19;130385;-61
2023/09/04 23:27:14;;;;;;;2.13;1.55;;;;;;;22.08;47.51;101846.19;16115918;19;130809;-62
2023/09/04 23:33:01;;;;;;;2.20;1.50;;;;;;;22.06;47.47;101842.81;16113021;19;129897;-61
2023/09/04 23:38:30;;;;;;;3.97;1.70;;;;;;;22.07;47.65;101844.50;16112857;19;129532;-61
2023/09/04 23:49:33;;;;;;;1.73;1.42;;;;;;;22.06;47.71;101842.81;16115049;19;130896;-61
2023/09/04 23:54:55;;;;;;;1.55;1.33;;;;;;;22.05;47.67;101843.91;16110463;19;130503;-61
